Converse, South Carolina
Current Conditions -  °F | °C
As of 7:35 PM on Monday 24 Nov 2014 (Local Time) from KSPA Reporting Station
Clear Clear  
Wind Chill: 64°   Ceiling: Unl
Heat Index: 64°   Visibility: 10mi
Dew Point: 57°   Wind: 0mph
Humidity: 77%   Direction: NA
Pressure: 29.85"   Gusts: NA
Location:  34.99°N, 81.83°W
Report Text: KSPA 250035Z AUTO 00000KT 10SM CLR 18/14 A2985 RMK AO2
Loading
Personal Weather Stations






























Interactive Weather Map New forecast layout! Learn more

10-Day Weather Forecast

Advertisements
Track Severe Weather on mobile